Time;durP1;ratioP1;P1;durP2;ratioP2;P2;SDS_P1;SDS_P2;PMS_P1;PMS_P2;Temp;Humidity;BMP_temperature;BMP_pressure;BME280_temperature;BME280_humidity;BME280_pressure;Samples;Min_cycle;Max_cycle;Signal;HPM_P1;HPM_P2
2020/12/10 00:01:50;;;;;;;7.33;5.23;;;6.10;99.90;;;;;;5070899;28;20232;-69
2020/12/10 00:04:17;;;;;;;9.87;6.57;;;6.00;99.90;;;;;;5070843;28;20210;-66
2020/12/10 00:06:44;;;;;;;7.27;5.10;;;5.90;99.90;;;;;;5071109;28;20716;-70
2020/12/10 00:09:10;;;;;;;8.07;5.10;;;5.90;99.90;;;;;;5070987;28;20212;-67
2020/12/10 00:11:37;;;;;;;7.17;4.50;;;5.90;99.90;;;;;;5070976;28;20665;-70
2020/12/10 00:14:04;;;;;;;7.53;5.10;;;5.90;99.90;;;;;;5070204;28;20263;-68
2020/12/10 00:16:31;;;;;;;5.97;5.33;;;5.80;99.90;;;;;;5070607;28;20218;-70
2020/12/10 00:18:58;;;;;;;4.83;4.17;;;5.70;99.90;;;;;;5070388;28;20271;-67
2020/12/10 00:21:25;;;;;;;10.17;5.30;;;5.70;99.90;;;;;;5070348;28;20242;-70
2020/12/10 00:23:51;;;;;;;6.50;5.13;;;5.80;99.90;;;;;;5070397;28;20677;-73
2020/12/10 00:26:19;;;;;;;10.23;6.43;;;5.60;99.90;;;;;;5070302;28;20283;-72
2020/12/10 00:28:45;;;;;;;9.07;6.73;;;5.60;99.90;;;;;;5070829;28;20271;-67
2020/12/10 00:31:12;;;;;;;9.63;6.50;;;5.60;99.90;;;;;;5070672;28;20669;-75
2020/12/10 00:33:38;;;;;;;13.00;7.37;;;5.60;99.90;;;;;;5070319;28;20242;-74
2020/12/10 00:36:05;;;;;;;9.23;6.13;;;5.70;99.90;;;;;;5070313;28;20242;-68
2020/12/10 00:38:32;;;;;;;12.77;6.23;;;5.80;99.90;;;;;;5070274;28;20206;-75
2020/12/10 00:40:58;;;;;;;6.97;5.70;;;5.70;99.90;;;;;;5070438;28;20237;-74
2020/12/10 00:43:26;;;;;;;7.37;6.10;;;5.80;99.90;;;;;;5070272;28;20210;-71
2020/12/10 00:45:52;;;;;;;6.57;4.43;;;5.80;99.90;;;;;;5070301;28;20272;-74
2020/12/10 00:48:19;;;;;;;6.97;4.93;;;5.90;99.90;;;;;;5070274;28;20206;-70
2020/12/10 00:50:45;;;;;;;6.43;3.83;;;6.00;99.90;;;;;;5070704;28;20202;-72
2020/12/10 00:53:12;;;;;;;5.37;4.20;;;6.10;99.90;;;;;;5070247;28;20251;-75
2020/12/10 00:55:39;;;;;;;6.13;3.93;;;6.20;99.90;;;;;;5070315;28;20238;-72
2020/12/10 00:58:05;;;;;;;7.47;3.93;;;6.10;99.90;;;;;;5069702;28;20267;-70
2020/12/10 01:00:32;;;;;;;4.70;3.97;;;6.00;99.90;;;;;;5070303;28;20198;-69
2020/12/10 01:02:58;;;;;;;5.47;3.90;;;6.00;99.90;;;;;;5069970;28;20205;-73
2020/12/10 01:05:26;;;;;;;5.57;3.80;;;6.00;99.90;;;;;;5070239;28;20269;-72
2020/12/10 01:07:52;;;;;;;6.77;4.47;;;5.90;99.90;;;;;;5069818;28;20206;-72
2020/12/10 01:10:20;;;;;;;5.43;4.50;;;6.00;99.90;;;;;;5070228;28;20694;-70
2020/12/10 01:12:46;;;;;;;6.50;5.07;;;6.10;99.90;;;;;;5070030;28;20289;-71
2020/12/10 01:15:13;;;;;;;6.40;5.13;;;6.10;99.90;;;;;;5070561;28;20245;-67
2020/12/10 01:17:41;;;;;;;7.93;5.93;;;6.00;99.90;;;;;;5070038;28;20206;-70
2020/12/10 01:20:08;;;;;;;5.23;4.40;;;6.10;99.90;;;;;;5070053;28;20301;-71
2020/12/10 01:22:35;;;;;;;8.27;6.13;;;6.00;99.90;;;;;;5070149;28;20727;-69
2020/12/10 01:25:02;;;;;;;6.13;5.47;;;6.00;99.90;;;;;;5069624;28;20222;-74
2020/12/10 01:27:29;;;;;;;6.60;5.33;;;6.00;99.90;;;;;;5069956;28;20202;-69
2020/12/10 01:29:55;;;;;;;10.13;6.40;;;6.00;99.90;;;;;;5069490;28;20624;-71
2020/12/10 01:32:22;;;;;;;5.67;5.10;;;6.10;99.90;;;;;;5073523;28;20207;-73
2020/12/10 01:34:49;;;;;;;7.00;6.30;;;6.00;99.90;;;;;;5073258;28;20210;-77
2020/12/10 01:37:15;;;;;;;9.23;6.47;;;6.00;99.90;;;;;;5074292;28;20587;-67
2020/12/10 01:39:42;;;;;;;7.83;5.47;;;6.00;99.90;;;;;;5074220;28;20623;-67
2020/12/10 01:42:08;;;;;;;8.93;5.40;;;6.10;99.90;;;;;;5073063;28;20206;-76
2020/12/10 01:44:35;;;;;;;8.70;6.30;;;6.10;99.90;;;;;;5073703;28;20210;-67
2020/12/10 01:47:02;;;;;;;7.30;5.27;;;6.10;99.90;;;;;;5073028;28;20261;-76
2020/12/10 01:49:29;;;;;;;6.57;5.57;;;6.20;99.90;;;;;;5073992;28;20198;-76
2020/12/10 01:51:55;;;;;;;7.93;4.23;;;6.20;99.90;;;;;;5073057;28;20210;-67
2020/12/10 01:54:22;;;;;;;7.37;5.27;;;6.20;99.90;;;;;;5073657;28;20217;-76
2020/12/10 01:56:52;;;;;;;6.60;4.80;;;6.30;99.90;;;;;;5072977;28;20555;-73
2020/12/10 01:59:18;;;;;;;7.93;5.80;;;6.30;99.90;;;;;;5073453;28;20234;-71
2020/12/10 02:01:46;;;;;;;7.80;5.90;;;6.30;99.90;;;;;;5074062;28;20214;-68
2020/12/10 02:04:27;;;;;;;6.30;5.40;;;6.20;99.90;;;;;;5073436;28;20206;-77
2020/12/10 02:06:53;;;;;;;8.73;4.80;;;6.30;99.90;;;;;;5073221;28;20591;-77
2020/12/10 02:09:20;;;;;;;6.80;6.10;;;6.20;99.90;;;;;;5072972;28;20731;-77
2020/12/10 02:11:46;;;;;;;9.43;5.97;;;6.20;99.90;;;;;;5073281;28;20260;-78
2020/12/10 02:14:13;;;;;;;8.30;4.93;;;6.20;99.90;;;;;;5073501;28;20210;-79
2020/12/10 02:16:39;;;;;;;6.90;4.83;;;6.30;99.90;;;;;;5058953;28;20249;-72
2020/12/10 02:19:07;;;;;;;6.70;4.63;;;6.20;99.90;;;;;;5063658;28;20304;-69
2020/12/10 02:21:33;;;;;;;6.10;4.53;;;6.20;99.90;;;;;;5073406;28;20271;-68
2020/12/10 02:24:00;;;;;;;8.23;4.40;;;6.20;99.90;;;;;;5072371;28;20206;-78
2020/12/10 02:26:28;;;;;;;7.67;4.00;;;6.20;99.90;;;;;;5072664;28;20299;-78
2020/12/10 02:28:58;;;;;;;8.93;5.17;;;6.20;99.90;;;;;;5072579;28;20900;-78
2020/12/10 02:31:26;;;;;;;5.73;4.10;;;6.20;99.90;;;;;;5072991;28;20214;-67
2020/12/10 02:33:58;;;;;;;6.80;4.27;;;6.20;99.90;;;;;;5072615;28;20252;-72
2020/12/10 02:36:25;;;;;;;4.70;3.73;;;6.20;99.90;;;;;;5072624;28;20242;-69
2020/12/10 02:38:51;;;;;;;4.67;3.73;;;6.30;99.90;;;;;;5072070;28;20198;-77
2020/12/10 02:41:19;;;;;;;5.10;3.97;;;6.30;99.90;;;;;;5072590;28;20688;-67
2020/12/10 02:43:45;;;;;;;5.20;3.70;;;6.30;99.90;;;;;;5072544;28;20206;-67
2020/12/10 02:46:12;;;;;;;5.83;3.93;;;6.20;99.90;;;;;;5072715;28;20806;-67
2020/12/10 02:48:39;;;;;;;5.63;4.37;;;6.20;99.90;;;;;;5072574;28;20207;-73
2020/12/10 02:51:06;;;;;;;6.13;4.53;;;6.20;99.90;;;;;;5072348;28;20202;-68
2020/12/10 02:53:33;;;;;;;7.57;4.70;;;6.10;99.90;;;;;;5072209;28;20206;-76
2020/12/10 02:56:00;;;;;;;4.83;3.43;;;6.10;99.90;;;;;;5071991;28;20210;-67
2020/12/10 02:58:27;;;;;;;7.37;4.27;;;6.10;99.90;;;;;;5072326;28;20686;-69
2020/12/10 03:00:54;;;;;;;7.13;3.93;;;6.10;99.90;;;;;;5072047;28;20206;-73
2020/12/10 03:03:20;;;;;;;5.10;3.70;;;6.00;99.90;;;;;;5072215;28;20629;-72
2020/12/10 03:05:46;;;;;;;5.40;3.53;;;6.00;99.90;;;;;;5071855;28;20230;-68
2020/12/10 03:08:13;;;;;;;4.93;3.63;;;6.00;99.90;;;;;;5072186;28;20739;-71
2020/12/10 03:10:39;;;;;;;5.23;3.60;;;6.00;99.90;;;;;;5072368;28;20236;-70
2020/12/10 03:13:06;;;;;;;4.77;3.77;;;6.00;99.90;;;;;;5058063;28;20311;-75
2020/12/10 03:15:33;;;;;;;4.67;3.80;;;6.00;99.90;;;;;;5072134;28;20279;-75
2020/12/10 03:18:00;;;;;;;7.17;4.07;;;6.00;99.90;;;;;;5071335;28;20579;-69
2020/12/10 03:20:26;;;;;;;6.83;3.20;;;6.10;99.90;;;;;;5071800;28;20662;-69
2020/12/10 03:22:53;;;;;;;9.93;3.73;;;6.10;99.90;;;;;;5070999;28;20255;-67
2020/12/10 03:25:19;;;;;;;7.10;3.33;;;6.10;99.90;;;;;;5071830;28;20252;-68
2020/12/10 03:27:46;;;;;;;6.67;4.07;;;6.10;99.90;;;;;;5071671;28;20210;-68
2020/12/10 03:30:13;;;;;;;6.50;4.87;;;6.10;99.90;;;;;;5072134;28;20202;-73
2020/12/10 03:32:40;;;;;;;5.93;4.20;;;6.00;99.90;;;;;;5071686;28;20206;-68
2020/12/10 03:35:07;;;;;;;5.60;3.40;;;6.00;99.90;;;;;;5071173;28;20539;-72
2020/12/10 03:37:33;;;;;;;6.07;3.30;;;6.00;99.90;;;;;;5071425;28;20585;-72
2020/12/10 03:40:00;;;;;;;5.83;3.90;;;6.00;99.90;;;;;;5070863;28;20689;-70
2020/12/10 03:42:27;;;;;;;5.40;3.27;;;6.00;99.90;;;;;;5071785;28;20259;-69
2020/12/10 03:44:53;;;;;;;3.83;3.07;;;6.10;99.90;;;;;;5070977;28;20237;-75
2020/12/10 03:47:19;;;;;;;5.53;2.97;;;6.20;99.90;;;;;;5071630;28;20206;-70
2020/12/10 03:49:47;;;;;;;3.60;2.73;;;6.10;99.90;;;;;;5071318;28;20237;-68
2020/12/10 03:52:13;;;;;;;3.73;2.77;;;6.20;99.90;;;;;;5071454;28;20202;-76
2020/12/10 03:54:40;;;;;;;7.23;3.27;;;6.10;99.90;;;;;;5071110;28;20244;-75
2020/12/10 03:57:06;;;;;;;5.30;2.83;;;6.00;99.90;;;;;;5070934;28;20286;-76
2020/12/10 03:59:33;;;;;;;3.63;2.70;;;6.00;99.90;;;;;;5071217;28;20637;-75
2020/12/10 04:01:59;;;;;;;6.93;3.27;;;6.10;99.90;;;;;;5070472;28;20202;-73
2020/12/10 04:04:25;;;;;;;4.27;3.47;;;6.20;99.90;;;;;;5071152;28;20233;-69
2020/12/10 04:06:53;;;;;;;3.87;3.10;;;6.20;99.90;;;;;;5070349;28;20701;-73
2020/12/10 04:09:19;;;;;;;3.80;2.93;;;6.20;99.90;;;;;;5070899;28;20207;-71
2020/12/10 04:11:46;;;;;;;2.53;2.33;;;6.10;99.90;;;;;;5070944;28;20685;-69
2020/12/10 04:14:12;;;;;;;4.73;2.37;;;6.00;99.90;;;;;;5070913;28;20580;-68
2020/12/10 04:16:39;;;;;;;4.47;2.87;;;5.90;99.90;;;;;;5070738;28;20222;-71
2020/12/10 04:19:06;;;;;;;3.00;1.87;;;5.90;99.90;;;;;;5070070;28;20249;-67
2020/12/10 04:21:32;;;;;;;2.90;2.10;;;5.90;99.90;;;;;;5070828;28;20563;-74
2020/12/10 04:23:59;;;;;;;4.23;1.80;;;5.90;99.90;;;;;;5070237;28;20626;-71
2020/12/10 04:26:26;;;;;;;4.20;1.97;;;5.90;99.90;;;;;;5070703;28;20292;-74
2020/12/10 04:28:52;;;;;;;2.80;1.73;;;5.80;99.90;;;;;;5070352;28;20264;-72
2020/12/10 04:31:19;;;;;;;3.37;2.60;;;5.80;99.90;;;;;;5070299;28;20241;-78
2020/12/10 04:33:45;;;;;;;4.10;2.10;;;5.80;99.90;;;;;;5070948;28;20232;-69
2020/12/10 04:36:12;;;;;;;5.40;2.10;;;5.80;99.90;;;;;;5070609;28;20209;-83
2020/12/10 04:38:38;;;;;;;5.30;2.20;;;5.80;99.90;;;;;;5070689;28;20202;-68
2020/12/10 04:41:07;;;;;;;3.67;1.90;;;5.80;99.90;;;;;;5070241;28;20206;-81
2020/12/10 04:43:34;;;;;;;3.30;2.40;;;5.80;99.90;;;;;;5070429;28;20210;-76
2020/12/10 04:46:02;;;;;;;3.13;2.17;;;5.80;99.90;;;;;;5070157;28;20226;-74
2020/12/10 04:48:29;;;;;;;5.97;2.30;;;5.80;99.90;;;;;;5070231;28;20697;-77
2020/12/10 04:50:57;;;;;;;3.47;2.53;;;5.90;99.90;;;;;;5070032;28;20210;-69
2020/12/10 04:53:24;;;;;;;3.50;2.07;;;6.00;99.90;;;;;;5070422;28;20587;-77
2020/12/10 04:55:53;;;;;;;5.30;1.93;;;5.90;99.90;;;;;;5070246;28;20206;-68
2020/12/10 04:58:20;;;;;;;3.23;2.43;;;5.90;99.90;;;;;;5070740;28;20241;-70
2020/12/10 05:00:47;;;;;;;3.40;1.57;;;5.80;99.90;;;;;;5070010;28;20214;-69
2020/12/10 05:03:15;;;;;;;3.00;1.90;;;5.80;99.90;;;;;;5070924;28;20232;-71
2020/12/10 05:05:42;;;;;;;2.70;1.60;;;5.80;99.90;;;;;;5071283;28;20306;-68
2020/12/10 05:08:08;;;;;;;3.57;2.07;;;5.80;99.90;;;;;;5074213;28;20633;-69
2020/12/10 05:10:43;;;;;;;5.20;1.73;;;5.80;99.90;;;;;;5074138;28;20205;-68
2020/12/10 05:13:11;;;;;;;6.03;2.13;;;5.80;99.90;;;;;;5073993;28;20209;-68
2020/12/10 05:15:40;;;;;;;4.10;2.20;;;5.80;99.90;;;;;;5074236;28;20214;-80
2020/12/10 05:18:08;;;;;;;3.30;1.80;;;5.80;99.90;;;;;;5074243;28;20237;-68
2020/12/10 05:20:39;;;;;;;6.30;3.23;;;5.80;99.90;;;;;;5074083;28;20206;-79
2020/12/10 05:23:07;;;;;;;3.43;2.33;;;5.90;99.90;;;;;;5074048;28;20314;-73
2020/12/10 05:25:45;;;;;;;9.07;3.13;;;5.90;99.90;;;;;;5074156;28;20230;-70
2020/12/10 05:28:12;;;;;;;2.17;1.70;;;6.00;99.90;;;;;;5071155;28;20202;-74
2020/12/10 05:30:39;;;;;;;1.80;1.37;;;6.00;99.90;;;;;;5074337;28;20209;-69
2020/12/10 05:33:13;;;;;;;4.37;1.47;;;5.90;99.90;;;;;;5073251;28;20751;-74
2020/12/10 05:35:40;;;;;;;3.13;2.50;;;5.80;99.90;;;;;;5074418;28;20210;-73
2020/12/10 05:38:09;;;;;;;2.03;1.40;;;5.80;99.90;;;;;;5073304;28;20303;-69
2020/12/10 05:40:35;;;;;;;2.70;1.43;;;5.70;99.90;;;;;;5074368;28;20599;-72
2020/12/10 05:43:02;;;;;;;3.80;2.20;;;5.70;99.90;;;;;;5073498;28;20210;-76
2020/12/10 05:45:29;;;;;;;1.80;1.30;;;5.80;99.90;;;;;;5073504;28;20283;-74
2020/12/10 05:47:58;;;;;;;1.30;0.70;;;5.80;99.90;;;;;;5073155;28;20629;-70
2020/12/10 05:50:26;;;;;;;5.70;1.83;;;5.70;99.90;;;;;;5073638;28;20247;-78
2020/12/10 05:53:05;;;;;;;5.90;2.70;;;5.70;99.90;;;;;;5073243;28;20740;-69
2020/12/10 05:55:31;;;;;;;5.17;2.93;;;5.70;99.90;;;;;;5073483;28;20259;-78
2020/12/10 05:57:59;;;;;;;2.40;1.73;;;5.70;99.90;;;;;;5074177;28;20268;-77
2020/12/10 06:00:25;;;;;;;3.83;1.80;;;5.80;99.90;;;;;;5071887;28;20673;-68
2020/12/10 06:02:54;;;;;;;6.20;2.20;;;5.80;99.90;;;;;;5073277;28;20623;-75
2020/12/10 06:05:22;;;;;;;7.53;4.03;;;5.90;99.90;;;;;;5072951;28;20269;-74
2020/12/10 06:07:59;;;;;;;3.80;1.87;;;6.00;99.90;;;;;;5072945;28;20207;-73
2020/12/10 06:10:26;;;;;;;6.17;1.53;;;6.00;99.90;;;;;;5072563;28;20682;-69
2020/12/10 06:12:52;;;;;;;3.47;1.57;;;5.90;99.90;;;;;;5073389;28;20283;-69
2020/12/10 06:15:23;;;;;;;1.70;0.90;;;6.00;99.90;;;;;;5072934;28;20754;-71
2020/12/10 06:18:06;;;;;;;1.33;0.67;;;6.00;99.90;;;;;;5072270;28;20213;-73
2020/12/10 06:20:38;;;;;;;1.83;1.00;;;6.00;99.90;;;;;;5072601;28;20205;-75
2020/12/10 06:23:34;;;;;;;1.97;1.20;;;6.00;99.90;;;;;;5073386;28;20251;-79
2020/12/10 06:26:45;;;;;;;2.43;1.40;;;6.00;99.90;;;;;;5049107;28;20245;-74
2020/12/10 06:29:19;;;;;;;2.80;0.93;;;6.10;99.90;;;;;;5073461;28;20206;-75
2020/12/10 06:32:04;;;;;;;2.37;1.33;;;6.10;99.90;;;;;;5073279;28;20206;-78
2020/12/10 06:34:42;;;;;;;1.17;0.97;;;6.20;99.90;;;;;;5073044;28;20209;-77
2020/12/10 06:37:27;;;;;;;2.87;1.10;;;6.30;99.90;;;;;;5060062;28;20228;-75
2020/12/10 06:39:56;;;;;;;6.67;1.43;;;6.30;99.90;;;;;;5073200;28;20268;-74
2020/12/10 06:42:22;;;;;;;1.93;0.83;;;6.30;99.90;;;;;;5072898;28;20272;-84
2020/12/10 06:44:49;;;;;;;2.33;1.43;;;6.30;99.90;;;;;;5072823;28;20202;-78
2020/12/10 06:47:16;;;;;;;3.50;1.73;;;6.30;99.90;;;;;;5073218;28;20233;-76
2020/12/10 06:49:43;;;;;;;3.37;2.13;;;6.30;99.90;;;;;;5072857;28;20217;-78
2020/12/10 06:52:10;;;;;;;2.97;2.00;;;6.30;99.90;;;;;;5072540;28;20251;-77
2020/12/10 06:55:19;;;;;;;5.10;1.53;;;6.40;99.90;;;;;;5072097;28;20786;-78
2020/12/10 06:58:00;;;;;;;3.13;1.70;;;6.50;99.90;;;;;;5072554;28;20785;-74
2020/12/10 07:00:46;;;;;;;1.93;1.63;;;6.50;99.90;;;;;;5071849;28;20206;-75
2020/12/10 07:03:18;;;;;;;3.80;2.20;;;6.50;99.90;;;;;;5072804;28;20206;-72
2020/12/10 07:05:44;;;;;;;3.20;2.30;;;6.50;99.90;;;;;;5072016;28;20218;-75
2020/12/10 07:08:12;;;;;;;4.23;2.50;;;6.60;99.90;;;;;;5072349;28;20669;-74
2020/12/10 07:10:42;;;;;;;5.33;2.43;;;6.70;99.90;;;;;;5071589;28;20210;-75
2020/12/10 07:13:09;;;;;;;3.70;2.27;;;6.70;99.90;;;;;;5072050;28;20206;-75
2020/12/10 07:15:36;;;;;;;3.33;2.40;;;6.70;99.90;;;;;;5071792;28;20283;-80
2020/12/10 07:18:04;;;;;;;3.43;2.40;;;6.80;99.90;;;;;;5071902;28;20256;-82
2020/12/10 07:20:32;;;;;;;4.40;2.53;;;6.90;99.90;;;;;;5071915;28;20206;-73
2020/12/10 07:23:00;;;;;;;4.57;2.93;;;6.90;99.90;;;;;;5058130;28;20232;-75
2020/12/10 07:25:26;;;;;;;4.43;2.97;;;6.90;99.90;;;;;;5071096;28;20831;-69
2020/12/10 07:27:55;;;;;;;4.43;3.47;;;7.00;99.90;;;;;;5070929;28;20206;-78
2020/12/10 07:30:24;;;;;;;3.27;2.97;;;7.00;99.90;;;;;;5071275;28;20670;-67
2020/12/10 07:32:53;;;;;;;3.33;2.97;;;7.30;99.90;;;;;;5071540;28;20512;-67
2020/12/10 07:35:29;;;;;;;5.33;2.53;;;7.20;99.90;;;;;;5063569;28;20202;-72
2020/12/10 07:37:55;;;;;;;4.53;2.87;;;7.20;99.90;;;;;;5060432;28;20207;-73
2020/12/10 07:40:23;;;;;;;3.43;3.10;;;7.20;99.90;;;;;;5067160;28;20694;-72
2020/12/10 07:42:50;;;;;;;4.13;1.90;;;7.10;99.90;;;;;;5063027;28;20263;-67
2020/12/10 07:45:18;;;;;;;4.20;2.67;;;7.10;99.90;;;;;;5071282;28;20253;-67
2020/12/10 07:47:55;;;;;;;3.13;2.80;;;7.20;99.90;;;;;;5071565;28;20206;-72
2020/12/10 07:50:22;;;;;;;4.43;3.03;;;7.20;99.90;;;;;;5065526;28;20203;-72
2020/12/10 07:52:50;;;;;;;4.50;2.60;;;7.10;99.90;;;;;;5067576;28;20205;-73
2020/12/10 07:55:20;;;;;;;4.50;3.33;;;7.10;99.90;;;;;;5071186;28;20211;-67
2020/12/10 07:57:56;;;;;;;4.67;3.13;;;7.10;99.90;;;;;;5060804;28;20201;-71
2020/12/10 08:00:26;;;;;;;4.03;3.00;;;7.10;99.90;;;;;;5070619;28;20248;-70
2020/12/10 08:03:19;;;;;;;6.30;3.10;;;7.00;99.90;;;;;;5069712;28;20251;-70
2020/12/10 08:05:59;;;;;;;3.37;2.93;;;6.90;99.90;;;;;;5042433;28;20234;-66
2020/12/10 08:08:38;;;;;;;5.70;3.07;;;7.00;99.90;;;;;;5064244;28;20696;-67
2020/12/10 08:11:14;;;;;;;3.67;3.17;;;7.00;99.90;;;;;;5057125;28;20201;-71
2020/12/10 08:14:08;;;;;;;4.23;3.83;;;7.20;99.90;;;;;;5070354;28;20202;-67
2020/12/10 08:16:40;;;;;;;10.00;3.73;;;7.50;99.90;;;;;;5042162;28;20257;-74
2020/12/10 08:19:14;;;;;;;5.50;4.33;;;7.80;99.90;;;;;;5060817;28;20245;-74
2020/12/10 08:21:41;;;;;;;4.70;3.63;;;8.40;99.90;;;;;;5057893;28;20243;-68
2020/12/10 08:24:08;;;;;;;5.70;2.70;;;8.90;99.90;;;;;;5060408;28;20252;-75
2020/12/10 08:26:34;;;;;;;8.60;3.23;;;9.10;99.90;;;;;;5056387;28;20272;-67
2020/12/10 08:29:01;;;;;;;5.13;3.10;;;9.10;99.90;;;;;;5067137;28;20255;-73
2020/12/10 08:31:29;;;;;;;6.23;2.90;;;9.10;99.90;;;;;;5069045;28;20238;-67
2020/12/10 08:33:57;;;;;;;5.17;2.73;;;9.10;99.90;;;;;;5070643;28;20242;-67
2020/12/10 08:36:31;;;;;;;7.80;2.77;;;9.10;99.90;;;;;;5070158;28;20202;-67
2020/12/10 08:38:59;;;;;;;7.43;3.50;;;9.10;99.90;;;;;;5064785;28;20633;-69
2020/12/10 08:41:28;;;;;;;6.13;2.90;;;9.10;99.90;;;;;;5066712;28;20206;-67
2020/12/10 08:43:55;;;;;;;7.70;2.87;;;9.20;99.90;;;;;;5070444;28;20210;-67
2020/12/10 08:46:22;;;;;;;6.07;2.33;;;9.20;99.90;;;;;;5070354;28;20230;-74
2020/12/10 08:48:48;;;;;;;3.87;1.80;;;9.20;99.90;;;;;;5065037;28;20206;-67
2020/12/10 08:51:16;;;;;;;8.73;2.97;;;9.20;99.90;;;;;;5059897;28;20206;-66
2020/12/10 08:53:47;;;;;;;5.50;2.37;;;9.30;99.90;;;;;;5069768;28;20290;-75
2020/12/10 08:56:21;;;;;;;7.10;2.93;;;9.40;99.90;;;;;;5068271;28;20208;-71
2020/12/10 08:58:48;;;;;;;9.43;2.63;;;9.50;99.90;;;;;;5066182;28;20198;-74
2020/12/10 09:01:15;;;;;;;9.70;2.53;;;9.60;99.90;;;;;;5069508;28;20297;-67
2020/12/10 09:03:42;;;;;;;12.83;3.07;;;9.50;99.90;;;;;;5069742;28;20677;-66
2020/12/10 09:06:08;;;;;;;16.43;3.43;;;9.50;99.90;;;;;;5064356;28;20659;-67
2020/12/10 09:08:36;;;;;;;11.70;3.60;;;9.40;99.90;;;;;;5067388;28;20646;-65
2020/12/10 09:11:02;;;;;;;15.03;3.90;;;9.30;99.90;;;;;;5059436;28;20202;-76
2020/12/10 09:13:29;;;;;;;13.53;2.93;;;9.40;99.90;;;;;;5067987;28;20206;-74
2020/12/10 09:15:56;;;;;;;16.77;3.97;;;9.90;99.90;;;;;;5068096;28;20232;-68
2020/12/10 09:18:22;;;;;;;18.87;5.57;;;10.30;99.90;;;;;;5069643;28;20198;-67
2020/12/10 09:20:49;;;;;;;11.40;4.40;;;10.40;99.90;;;;;;5067123;28;20206;-69
2020/12/10 09:23:16;;;;;;;14.50;3.70;;;10.50;99.90;;;;;;5068809;28;20268;-71
2020/12/10 09:25:43;;;;;;;12.60;3.50;;;10.60;99.90;;;;;;5065137;28;20229;-66
2020/12/10 09:28:10;;;;;;;13.67;4.10;;;10.50;99.90;;;;;;5054538;28;20626;-66
2020/12/10 09:30:36;;;;;;;14.63;4.50;;;10.50;99.90;;;;;;5063893;28;20288;-67
2020/12/10 09:33:04;;;;;;;15.57;4.07;;;10.40;99.90;;;;;;5065635;28;20202;-71
2020/12/10 09:35:31;;;;;;;20.90;6.57;;;10.50;99.90;;;;;;5059511;28;20670;-67
2020/12/10 09:37:58;;;;;;;19.47;4.73;;;11.00;99.90;;;;;;5051815;28;20261;-68
2020/12/10 09:40:25;;;;;;;14.83;4.57;;;11.90;99.90;;;;;;5069492;28;20666;-68
2020/12/10 09:42:53;;;;;;;12.70;4.43;;;13.10;99.90;;;;;;5068094;28;20209;-68
2020/12/10 09:45:20;;;;;;;21.17;4.87;;;14.70;99.90;;;;;;5069838;28;20616;-68
2020/12/10 09:47:47;;;;;;;22.33;6.10;;;13.40;99.90;;;;;;5069187;28;20299;-70
2020/12/10 09:50:25;;;;;;;14.93;4.83;;;12.50;99.90;;;;;;5069077;28;20202;-68
2020/12/10 09:52:57;;;;;;;14.87;3.90;;;11.80;99.90;;;;;;5070336;28;20743;-70
2020/12/10 09:58:18;;;;;;;15.17;5.37;;;11.50;99.90;;;;;;5040660;28;20211;-70
2020/12/10 10:00:49;;;;;;;12.10;4.83;;;11.70;99.90;;;;;;5069136;28;20206;-68
2020/12/10 10:03:15;;;;;;;17.30;4.63;;;12.20;99.90;;;;;;5073123;28;20202;-67
2020/12/10 10:05:42;;;;;;;12.73;4.33;;;12.20;99.90;;;;;;5062783;28;20260;-68
2020/12/10 10:08:09;;;;;;;15.60;4.60;;;12.40;99.90;;;;;;5064404;28;20206;-67
2020/12/10 10:10:35;;;;;;;16.47;4.20;;;12.30;99.90;;;;;;5069052;28;20289;-71
2020/12/10 10:13:01;;;;;;;13.95;4.95;;;12.20;99.90;;;;;;5070360;28;20238;-67
2020/12/10 10:15:29;;;;;;;10.75;3.60;;;12.10;99.90;;;;;;5071804;28;20218;-68
2020/12/10 10:17:55;;;;;;;14.57;6.07;;;12.00;99.90;;;;;;5069193;28;20670;-71
2020/12/10 10:20:22;;;;;;;20.70;5.23;;;11.80;99.90;;;;;;5066798;28;20670;-67
2020/12/10 10:22:48;;;;;;;23.10;6.33;;;11.70;99.90;;;;;;5072536;28;20206;-68
2020/12/10 10:25:15;;;;;;;23.63;4.90;;;11.40;99.90;;;;;;5064865;28;20640;-67
2020/12/10 10:27:41;;;;;;;17.33;4.73;;;11.00;99.90;;;;;;5072203;28;20234;-67
2020/12/10 10:30:08;;;;;;;14.73;3.67;;;10.60;99.90;;;;;;5072415;28;20654;-71
2020/12/10 10:32:36;;;;;;;17.17;4.90;;;10.50;99.90;;;;;;5072583;28;20271;-71
2020/12/10 10:35:02;;;;;;;19.23;6.70;;;10.50;99.90;;;;;;5072129;28;20661;-67
2020/12/10 10:37:29;;;;;;;16.77;4.97;;;10.50;99.90;;;;;;5072524;28;20260;-68
2020/12/10 10:39:55;;;;;;;15.13;6.03;;;10.50;99.90;;;;;;5072293;28;20206;-68
2020/12/10 10:42:22;;;;;;;21.43;5.23;;;10.50;99.90;;;;;;5071614;28;20230;-67
2020/12/10 10:44:48;;;;;;;13.43;3.93;;;10.60;99.90;;;;;;5064705;28;20203;-67
2020/12/10 10:47:15;;;;;;;25.10;4.77;;;10.60;99.90;;;;;;5070657;28;20230;-71
2020/12/10 10:49:42;;;;;;;22.47;4.43;;;10.60;99.90;;;;;;5059952;28;20202;-70
2020/12/10 10:52:08;;;;;;;14.77;4.07;;;10.60;99.90;;;;;;5060111;28;20202;-69
2020/12/10 10:54:35;;;;;;;14.13;3.57;;;10.60;99.90;;;;;;5064921;28;20665;-69
2020/12/10 10:57:01;;;;;;;6.83;2.30;;;10.50;99.90;;;;;;5067300;28;20256;-68
2020/12/10 10:59:27;;;;;;;8.20;2.37;;;10.30;99.90;;;;;;5061550;28;20207;-69
2020/12/10 11:01:54;;;;;;;6.40;1.40;;;10.10;99.90;;;;;;5069367;28;20252;-67
2020/12/10 11:04:21;;;;;;;3.73;2.23;;;10.00;99.90;;;;;;5071059;28;20212;-69
2020/12/10 11:06:51;;;;;;;5.07;1.57;;;9.90;99.90;;;;;;5065212;28;20647;-67
2020/12/10 11:09:18;;;;;;;6.80;1.50;;;9.80;99.90;;;;;;5071153;28;20248;-68
2020/12/10 11:11:44;;;;;;;5.80;2.27;;;9.70;99.90;;;;;;5071520;28;20210;-67
2020/12/10 11:14:11;;;;;;;7.53;2.03;;;9.70;99.90;;;;;;5071683;28;20202;-67
2020/12/10 11:16:37;;;;;;;5.27;1.60;;;9.60;99.90;;;;;;5063377;28;20210;-67
2020/12/10 11:19:04;;;;;;;3.47;1.30;;;9.60;99.90;;;;;;5059792;28;20299;-69
2020/12/10 11:21:30;;;;;;;7.17;2.13;;;9.60;99.90;;;;;;5071545;28;20198;-67
2020/12/10 11:23:57;;;;;;;5.33;2.10;;;9.60;99.90;;;;;;5061017;28;20203;-67
2020/12/10 11:26:24;;;;;;;4.07;1.73;;;9.70;99.90;;;;;;5062974;28;20262;-67
2020/12/10 11:28:50;;;;;;;4.67;1.83;;;9.70;99.90;;;;;;5070944;28;20210;-66
2020/12/10 11:31:17;;;;;;;9.27;1.70;;;9.70;99.90;;;;;;5065864;28;20240;-67
2020/12/10 11:33:44;;;;;;;11.80;2.33;;;9.70;99.90;;;;;;5071157;28;20206;-68
2020/12/10 11:36:10;;;;;;;7.67;3.03;;;9.70;99.90;;;;;;5064788;28;20236;-67
2020/12/10 11:38:37;;;;;;;9.03;2.53;;;9.70;99.90;;;;;;5058226;28;20215;-67
2020/12/10 11:41:04;;;;;;;4.70;2.43;;;9.70;99.90;;;;;;5058893;28;20206;-69
2020/12/10 11:43:30;;;;;;;9.87;2.70;;;9.70;99.90;;;;;;5070860;28;20229;-67
2020/12/10 11:45:57;;;;;;;6.90;2.90;;;9.70;99.90;;;;;;5069144;28;20613;-67
2020/12/10 11:48:24;;;;;;;14.53;8.83;;;9.70;99.90;;;;;;5064482;28;20839;-67
2020/12/10 11:50:50;;;;;;;8.70;3.67;;;9.70;99.90;;;;;;5065566;28;20302;-69
2020/12/10 11:53:17;;;;;;;5.90;1.50;;;9.60;99.90;;;;;;5071558;28;20206;-68
2020/12/10 11:55:44;;;;;;;7.57;2.40;;;9.60;99.90;;;;;;5070362;28;20211;-70
2020/12/10 11:58:12;;;;;;;6.83;3.20;;;9.50;99.90;;;;;;5071056;28;20206;-67
2020/12/10 12:00:38;;;;;;;5.77;2.03;;;9.50;99.90;;;;;;5070609;28;20731;-67
2020/12/10 12:03:05;;;;;;;5.40;2.40;;;9.40;99.90;;;;;;5070811;28;20628;-70
2020/12/10 12:05:32;;;;;;;5.33;1.90;;;9.40;99.90;;;;;;5070368;28;20207;-68
2020/12/10 12:07:58;;;;;;;7.60;3.17;;;9.40;99.90;;;;;;5070877;28;20284;-67
2020/12/10 12:10:25;;;;;;;4.37;2.60;;;9.40;99.90;;;;;;5070906;28;20608;-69
2020/12/10 12:12:51;;;;;;;5.50;1.60;;;9.30;99.90;;;;;;5070513;28;20202;-66
2020/12/10 12:15:18;;;;;;;8.13;2.97;;;9.40;99.90;;;;;;5070403;28;20692;-67
2020/12/10 12:17:45;;;;;;;3.17;1.30;;;9.30;99.90;;;;;;5059650;28;20206;-67
2020/12/10 12:20:13;;;;;;;6.27;2.20;;;9.20;99.90;;;;;;5064668;28;20256;-68
2020/12/10 12:22:39;;;;;;;4.40;2.33;;;9.20;99.90;;;;;;5070376;28;20213;-68
2020/12/10 12:25:06;;;;;;;4.77;1.97;;;9.20;99.90;;;;;;5060316;28;20207;-67
2020/12/10 12:27:33;;;;;;;11.83;5.37;;;9.20;99.90;;;;;;5068390;28;20277;-69
2020/12/10 12:29:59;;;;;;;3.40;1.87;;;9.20;99.90;;;;;;5067170;28;20567;-71
2020/12/10 12:32:26;;;;;;;6.33;2.80;;;9.20;99.90;;;;;;5061431;28;20205;-67
2020/12/10 12:34:53;;;;;;;4.67;1.90;;;9.30;99.90;;;;;;5061438;28;20229;-66
2020/12/10 12:37:20;;;;;;;5.20;2.63;;;9.30;99.90;;;;;;5058879;28;20260;-67
2020/12/10 12:39:46;;;;;;;5.03;1.50;;;9.30;99.90;;;;;;5066076;28;20304;-66
2020/12/10 12:42:13;;;;;;;5.30;2.30;;;9.30;99.90;;;;;;5065612;28;20198;-66
2020/12/10 12:44:39;;;;;;;2.83;2.00;;;9.40;99.90;;;;;;5069707;28;20279;-67
2020/12/10 12:47:08;;;;;;;3.73;1.97;;;9.40;99.90;;;;;;5070043;28;20705;-68
2020/12/10 12:49:35;;;;;;;6.70;2.10;;;9.50;99.90;;;;;;5070078;28;20198;-68
2020/12/10 12:52:02;;;;;;;3.83;2.03;;;9.60;99.90;;;;;;5070287;28;20202;-71
2020/12/10 12:54:29;;;;;;;5.93;1.70;;;9.60;99.90;;;;;;5064098;28;20271;-68
2020/12/10 12:56:55;;;;;;;2.97;1.70;;;9.50;99.90;;;;;;5069816;28;20636;-71
2020/12/10 12:59:22;;;;;;;2.63;1.63;;;9.60;99.90;;;;;;5070056;28;20745;-68
2020/12/10 13:01:48;;;;;;;2.53;1.47;;;9.60;99.90;;;;;;5069881;28;20210;-68